Portada
METAR-TAF:

METAR-TAF

Aeroports :

Burgos, Espanya

latitud: 42-22N, longitud: 003-38W, altitud: 894 m

Observació

L'informe es va fer fa 29 minuts, a les 06:00 UTC
Vent 5 kt del Sud-Oest, variant entre Sud/Sud-Oest i Oest
Temperatura 5°C
Humitat 75%
Pressió 1021 hPa
Visibilitat 10 km o més
Escasses núvols a una alçada de 4000 ft

METAR: LEBG 250600Z 22005KT 200V260 9999 FEW040 05/01 Q1021

Hora: 07:29 (06:29 UTC)

Pronòstic

L'informe es va fer fa 1 hora i 29 minuts, a les 05:00 UTC
Pronòstic vàlid del 25 a les 06 UTC al 25 a les 15 UTC
Vent 8 kt del Sud-Oest
Visibilitat 10 km o més
Escasses núvols a una alçada de 4000 ft
Temporalment
l' 25 a les 11 UTC al 25 a les 15 UTC
Vent 12 kt del Oest

TAF: LEBG 250500Z 2506/2515 22008KT 9999 FEW040 TEMPO 2511/2515 28012KT

Observacions i pronòstics meteorològics de més de 4000 aeroports (METAR i TAF).

Les estacions disponibles són els punts grocs i vermells al mapa.

Posi el ratolí al punt desitjat per veure el nom de l'estació.

Feu clic per veure les observacions i els pronòstics meteorològics.

Per canviar el mapa: feu clic els botons verds amb una creu de color negre per apropar; al botó verd amb un guió per allunyar la imatge; o en les fletxes verdes per a mapes adjacents.


METAR-TAF: